Time;durP1;ratioP1;P1;durP2;ratioP2;P2;SDS_P1;SDS_P2;PMS_P1;PMS_P2;Temp;Humidity;BMP_temperature;BMP_pressure;BME280_temperature;BME280_humidity;BME280_pressure;Samples;Min_cycle;Max_cycle;Signal;HPM_P1;HPM_P2
2021/10/11 00:01:46;;;;;;;0.10;0.10;;;22.30;57.30;;;;;;39112571;22;20022;-54
2021/10/11 00:16:48;;;;;;;0.10;0.10;;;22.30;57.50;;;;;;39111020;22;20429;-43
2021/10/11 00:31:50;;;;;;;0.10;0.10;;;23.00;56.20;;;;;;39110971;22;20031;-54
2021/10/11 00:46:52;;;;;;;0.10;0.10;;;23.00;56.30;;;;;;39108264;22;20488;-55
2021/10/11 01:01:54;;;;;;;0.10;0.10;;;22.90;56.80;;;;;;39109032;22;20024;-46
2021/10/11 01:16:56;;;;;;;0.10;0.10;;;22.70;56.80;;;;;;39119269;22;20019;-48
2021/10/11 01:31:58;;;;;;;0.10;0.10;;;22.70;56.80;;;;;;39123080;22;20016;-56
2021/10/11 01:47:00;;;;;;;0.35;0.10;;;22.60;56.90;;;;;;39119192;22;20016;-55
2021/10/11 02:02:03;;;;;;;0.20;0.10;;;22.50;57.30;;;;;;39123428;22;20039;-46
2021/10/11 02:17:05;;;;;;;0.10;0.10;;;22.50;57.50;;;;;;39123594;22;20067;-46
2021/10/11 02:32:07;;;;;;;0.17;0.10;;;22.40;57.30;;;;;;39123350;22;20137;-48
2021/10/11 02:47:09;;;;;;;0.10;0.10;;;22.40;57.40;;;;;;39118669;22;20050;-47
2021/10/11 03:02:11;;;;;;;0.10;0.10;;;22.30;57.30;;;;;;39119628;22;20016;-45
2021/10/11 03:17:13;;;;;;;0.10;0.10;;;22.30;57.40;;;;;;39119523;22;20071;-50
2021/10/11 03:32:15;;;;;;;0.10;0.10;;;22.30;58.10;;;;;;39119205;22;20016;-42
2021/10/11 03:47:17;;;;;;;0.10;0.10;;;23.00;56.60;;;;;;39115524;22;20095;-49
2021/10/11 04:02:19;;;;;;;0.10;0.10;;;23.10;56.60;;;;;;39116600;22;20020;-54
2021/10/11 04:32:31;;;;;;;0.30;0.20;;;22.70;57.40;;;;;;31390563;22;10001733;-41
2021/10/11 04:47:33;;;;;;;0.20;0.20;;;22.60;57.50;;;;;;31861392;28;20095;-41
2021/10/11 05:02:35;;;;;;;0.10;0.10;;;22.50;57.50;;;;;;31789100;28;20075;-47
2021/10/11 05:17:38;;;;;;;20.38;10.63;;;22.40;57.50;;;;;;31844530;28;20040;-55
2021/10/11 05:32:41;;;;;;;26.52;16.35;;;22.20;55.70;;;;;;31816194;28;20075;-50
2021/10/11 05:47:43;;;;;;;42.58;28.67;;;22.20;52.70;;;;;;31721948;28;20067;-51
2021/10/11 06:02:45;;;;;;;36.15;26.83;;;22.60;47.70;;;;;;31759790;28;20036;-45
2021/10/11 06:17:47;;;;;;;37.90;22.83;;;22.60;48.20;;;;;;31739438;28;20127;-43
2021/10/11 06:32:49;;;;;;;45.60;29.58;;;22.50;48.40;;;;;;31684951;28;20098;-41
2021/10/11 06:47:51;;;;;;;69.70;47.08;;;22.40;46.10;;;;;;31759426;28;20044;-41
2021/10/11 07:02:53;;;;;;;57.03;40.83;;;22.10;47.30;;;;;;31759151;28;20068;-43
2021/10/11 07:17:57;;;;;;;50.30;36.20;;;22.10;48.10;;;;;;31756025;28;20060;-47
2021/10/11 07:33:00;;;;;;;43.95;30.73;;;22.10;49.40;;;;;;31737850;28;20072;-48
2021/10/11 07:48:03;;;;;;;45.33;32.03;;;22.50;49.30;;;;;;31753734;28;20055;-48
2021/10/11 08:03:05;;;;;;;35.05;26.20;;;22.60;49.50;;;;;;31752043;28;20055;-44
2021/10/11 08:18:08;;;;;;;32.67;25.23;;;22.50;50.00;;;;;;31751525;28;20100;-44
2021/10/11 08:33:10;;;;;;;32.00;23.13;;;22.40;50.50;;;;;;31750129;28;20105;-50
2021/10/11 08:48:12;;;;;;;31.02;22.90;;;22.40;50.80;;;;;;31749622;28;20086;-43
2021/10/11 09:03:19;;;;;;;31.55;23.23;;;22.30;51.10;;;;;;31748465;28;20040;-42
2021/10/11 09:18:29;;;;;;;31.17;20.88;;;22.20;51.10;;;;;;31767972;28;20052;-48
2021/10/11 09:33:33;;;;;;;29.50;19.80;;;22.60;51.60;;;;;;31768179;28;20060;-54
2021/10/11 09:48:46;;;;;;;42.72;31.80;;;23.00;51.20;;;;;;31700095;28;20064;-41
2021/10/11 10:03:49;;;;;;;34.55;23.45;;;22.70;50.00;;;;;;31641900;28;20040;-40
2021/10/11 10:18:51;;;;;;;29.52;20.90;;;22.40;51.20;;;;;;31635298;28;20059;-46
2021/10/11 10:33:53;;;;;;;26.90;18.13;;;22.40;51.00;;;;;;31631979;28;20162;-45
2021/10/11 10:48:55;;;;;;;22.02;15.77;;;22.30;51.10;;;;;;31630037;28;20044;-44
2021/10/11 11:04:11;;;;;;;19.23;14.25;;;22.20;51.00;;;;;;31627917;28;20040;-45
2021/10/11 11:19:13;;;;;;;22.00;12.35;;;22.10;51.20;;;;;;31237838;28;10000938;-45
2021/10/11 11:34:15;;;;;;;31.63;14.05;;;22.20;50.30;;;;;;31624029;28;20091;-51
2021/10/11 11:49:26;;;;;;;41.90;20.75;;;22.50;51.30;;;;;;31621695;28;20100;-57
2021/10/11 12:04:29;;;;;;;39.03;23.50;;;22.80;51.00;;;;;;31615564;28;20116;-57
2021/10/11 12:19:33;;;;;;;43.97;24.88;;;22.70;50.90;;;;;;31616571;28;20092;-58
2021/10/11 12:34:51;;;;;;;59.50;19.95;;;22.50;50.90;;;;;;31620266;28;20116;-46
2021/10/11 12:50:02;;;;;;;31.48;18.30;;;22.50;51.70;;;;;;31643143;28;20132;-43
2021/10/11 13:05:07;;;;;;;27.65;17.52;;;22.60;51.30;;;;;;31647587;28;20044;-44
2021/10/11 13:20:09;;;;;;;23.70;16.50;;;22.70;51.50;;;;;;31646982;28;20045;-43
2021/10/11 16:08:41;;;;;;;13.18;6.95;;;22.50;51.60;;;;;;31729218;28;20099;-48
2021/10/11 16:23:44;;;;;;;11.00;6.68;;;22.50;52.80;;;;;;31749696;28;20135;-42
2021/10/11 16:38:47;;;;;;;10.63;6.57;;;22.30;52.60;;;;;;31745229;28;20047;-47
2021/10/11 17:09:04;;;;;;;10.75;5.70;;;22.30;53.20;;;;;;31724927;28;20044;-45
2021/10/11 17:24:07;;;;;;;7.38;5.85;;;22.20;53.50;;;;;;31725048;28;20050;-41
2021/10/11 17:39:13;;;;;;;10.63;5.93;;;22.20;53.40;;;;;;31762427;28;20040;-43
2021/10/11 17:54:15;;;;;;;31.98;9.95;;;22.20;53.80;;;;;;31762494;28;20051;-44
2021/10/11 18:09:18;;;;;;;24.40;9.23;;;23.30;54.40;;;;;;31740611;28;20051;-49
2021/10/11 18:24:20;;;;;;;18.52;8.30;;;23.30;55.50;;;;;;31755934;28;20064;-44
2021/10/11 18:39:22;;;;;;;17.65;6.68;;;22.90;56.40;;;;;;31754140;28;20040;-40
2021/10/11 18:54:24;;;;;;;16.85;7.43;;;22.90;57.30;;;;;;31753997;28;20048;-49
2021/10/11 19:09:26;;;;;;;13.15;5.68;;;22.90;57.30;;;;;;31391751;28;9999888;-39
2021/10/11 19:24:28;;;;;;;12.45;6.65;;;22.90;57.60;;;;;;31730202;28;20051;-43
2021/10/11 19:39:31;;;;;;;11.70;5.68;;;22.50;56.60;;;;;;31643050;28;20060;-45
2021/10/11 19:54:33;;;;;;;94.30;70.40;;;22.50;57.20;;;;;;31608881;28;20054;-55
2021/10/11 20:09:35;;;;;;;8.48;5.70;;;22.40;55.60;;;;;;31625194;28;20067;-41
2021/10/11 20:24:37;;;;;;;1.13;0.90;;;22.50;56.80;;;;;;31642804;28;20107;-44
2021/10/11 20:39:39;;;;;;;1.55;0.60;;;22.50;56.70;;;;;;31749811;28;20051;-41
2021/10/11 20:54:41;;;;;;;0.20;0.20;;;22.50;56.80;;;;;;31748426;28;20512;-40
2021/10/11 21:09:43;;;;;;;1.33;0.25;;;22.60;56.40;;;;;;31763067;28;20044;-37
2021/10/11 21:24:45;;;;;;;0.10;0.10;;;22.70;56.10;;;;;;31766767;28;20063;-40
2021/10/11 21:39:46;;;;;;;0.10;0.10;;;22.70;56.40;;;;;;31768490;28;20064;-39
2021/10/11 21:54:49;;;;;;;26.80;20.52;;;22.70;56.40;;;;;;31766962;28;20098;-49
2021/10/11 22:09:52;;;;;;;16.65;12.60;;;22.60;56.10;;;;;;31760037;28;20055;-51
2021/10/11 22:24:54;;;;;;;9.80;8.13;;;22.70;56.00;;;;;;31760891;28;20072;-49
2021/10/11 22:39:56;;;;;;;5.80;4.97;;;22.70;56.30;;;;;;31765335;28;20122;-42
2021/10/11 22:54:59;;;;;;;23.90;19.27;;;22.70;56.40;;;;;;31763643;28;20099;-42
2021/10/11 23:10:02;;;;;;;14.10;10.60;;;22.40;55.90;;;;;;31761922;28;20048;-36
2021/10/11 23:25:05;;;;;;;12.35;8.80;;;22.50;56.00;;;;;;31740130;28;20143;-39
2021/10/11 23:40:07;;;;;;;6.10;5.18;;;22.50;56.00;;;;;;31737708;28;20040;-38
2021/10/11 23:55:09;;;;;;;4.03;3.08;;;22.50;56.30;;;;;;31755774;28;20067;-36
